createdAt,value
2023-06-04T00:00:28.100Z,98276.41
2023-06-04T00:02:57.261Z,98285.56
2023-06-04T00:05:26.534Z,98273.00
2023-06-04T00:07:55.510Z,98276.66
2023-06-04T00:10:24.463Z,98277.28
2023-06-04T00:12:53.410Z,98269.38
2023-06-04T00:15:23.773Z,98271.84
2023-06-04T00:17:52.910Z,98276.16
2023-06-04T00:20:21.820Z,98273.69
2023-06-04T00:22:50.452Z,98272.50
2023-06-04T00:25:19.017Z,98279.19
2023-06-04T00:27:47.940Z,98271.13
2023-06-04T00:30:17.852Z,98278.84
2023-06-04T00:32:48.166Z,98276.25
2023-06-04T00:35:18.060Z,98280.09
2023-06-04T00:37:46.514Z,98279.72
2023-06-04T00:40:16.415Z,98282.78
2023-06-04T00:42:46.789Z,98278.13
2023-06-04T00:45:16.979Z,98278.13
2023-06-04T00:47:47.355Z,98285.06
2023-06-04T00:50:16.820Z,98278.56
2023-06-04T00:52:45.840Z,98276.94
2023-06-04T00:55:15.042Z,98283.88
2023-06-04T00:57:44.629Z,98279.22
2023-06-04T01:00:15.204Z,98278.00
2023-06-04T01:02:52.285Z,98279.41
2023-06-04T01:05:34.472Z,98279.84
2023-06-04T01:08:04.156Z,98277.41
2023-06-04T01:10:33.185Z,98279.00
2023-06-04T01:13:02.199Z,98279.41
2023-06-04T01:15:31.531Z,98279.00
2023-06-04T01:18:06.809Z,98280.25
2023-06-04T01:20:41.605Z,98272.94
2023-06-04T01:24:00.471Z,98269.91
2023-06-04T01:26:30.945Z,98271.34
2023-06-04T01:29:02.036Z,98273.78
2023-06-04T01:31:34.021Z,98276.00
2023-06-04T01:34:04.297Z,98281.25
2023-06-04T01:36:33.602Z,98276.19
2023-06-04T01:39:02.365Z,98275.78
2023-06-04T01:41:31.155Z,98275.38
2023-06-04T01:43:59.939Z,98278.25
2023-06-04T01:46:29.552Z,98287.53
2023-06-04T01:48:58.112Z,98280.25
2023-06-04T01:51:28.020Z,98273.16
2023-06-04T01:53:57.003Z,98269.50
2023-06-04T01:56:27.382Z,98274.97
2023-06-04T01:58:57.224Z,98275.38
2023-06-04T02:01:28.285Z,98284.09
2023-06-04T02:03:57.369Z,98274.56
2023-06-04T02:06:31.099Z,98275.97
2023-06-04T02:09:01.679Z,98277.38
2023-06-04T02:11:30.790Z,98273.13
2023-06-04T02:14:00.234Z,98269.31
2023-06-04T02:16:29.469Z,98267.44
2023-06-04T02:19:00.207Z,98278.56
2023-06-04T02:21:30.036Z,98272.91
2023-06-04T02:23:58.587Z,98274.09
2023-06-04T02:26:27.949Z,98275.31
2023-06-04T02:28:56.461Z,98279.75
2023-06-04T02:31:24.912Z,98275.69
2023-06-04T02:33:53.880Z,98281.53
2023-06-04T02:36:22.857Z,98283.75
2023-06-04T02:38:53.693Z,98275.88
2023-06-04T02:41:22.461Z,98282.16
2023-06-04T02:43:51.040Z,98283.34
2023-06-04T02:46:19.878Z,98280.09
2023-06-04T02:48:49.098Z,98272.78
2023-06-04T02:51:18.594Z,98276.81
2023-06-04T02:53:47.452Z,98271.53
2023-06-04T02:56:17.843Z,98274.56
2023-06-04T02:58:52.615Z,98274.75
2023-06-04T03:01:22.282Z,98275.94
2023-06-04T03:03:51.704Z,98281.59
2023-06-04T03:06:22.096Z,98281.56
2023-06-04T03:08:53.207Z,98284.59
2023-06-04T03:11:24.053Z,98284.97
2023-06-04T03:13:54.247Z,98282.53
2023-06-04T03:16:22.862Z,98281.94
2023-06-04T03:18:52.478Z,98283.56
2023-06-04T03:21:21.115Z,98282.31
2023-06-04T03:23:51.792Z,98285.13
2023-06-04T03:26:20.400Z,98285.13
2023-06-04T03:28:51.464Z,98284.69
2023-06-04T03:31:20.752Z,98297.22
2023-06-04T03:33:49.308Z,98300.41
2023-06-04T03:36:18.466Z,98294.94
2023-06-04T03:38:48.901Z,98289.06
2023-06-04T03:41:17.574Z,98290.06
2023-06-04T03:43:47.474Z,98291.25
2023-06-04T03:46:17.973Z,98294.69
2023-06-04T03:48:46.518Z,98296.91
2023-06-04T03:51:14.948Z,98298.50
2023-06-04T03:53:44.396Z,98298.84
2023-06-04T03:56:14.764Z,98299.47
2023-06-04T03:58:43.651Z,98293.41
2023-06-04T04:01:12.618Z,98301.69
2023-06-04T04:03:44.316Z,98295.00
2023-06-04T04:06:13.096Z,98298.63
2023-06-04T04:08:45.044Z,98290.75
2023-06-04T04:11:14.735Z,98294.38
2023-06-04T04:13:44.067Z,98297.00
2023-06-04T04:16:13.241Z,98296.19
2023-06-04T04:18:45.373Z,98294.75
2023-06-04T04:21:14.053Z,98304.63
2023-06-04T04:23:42.921Z,98305.03
2023-06-04T04:26:13.236Z,98298.53
2023-06-04T04:28:42.144Z,98306.16
2023-06-04T04:31:11.135Z,98306.53
2023-06-04T04:33:40.684Z,98307.34
2023-06-04T04:36:13.794Z,98301.13
2023-06-04T04:38:42.909Z,98304.09
2023-06-04T04:41:12.818Z,98311.78
2023-06-04T04:43:42.046Z,98303.72
2023-06-04T04:46:11.768Z,98307.78
2023-06-04T04:48:41.874Z,98304.16
2023-06-04T04:51:12.056Z,98315.88
2023-06-04T04:53:41.040Z,98305.81
2023-06-04T04:56:09.535Z,98318.34
2023-06-04T04:58:38.056Z,98305.06
2023-06-04T05:01:06.704Z,98308.91
2023-06-04T05:03:36.389Z,98298.84
2023-06-04T05:06:05.646Z,98311.81
2023-06-04T05:08:35.809Z,98300.56
2023-06-04T05:11:04.347Z,98305.44
2023-06-04T05:13:33.371Z,98310.91
2023-06-04T05:16:07.850Z,98315.38
2023-06-04T05:18:42.965Z,98319.22
2023-06-04T05:21:13.308Z,98318.84
2023-06-04T05:23:51.239Z,98314.22
2023-06-04T05:26:25.225Z,98320.72
2023-06-04T05:28:56.677Z,98318.31
2023-06-04T05:31:34.531Z,98314.28
2023-06-04T05:34:05.638Z,98314.72
2023-06-04T05:36:37.575Z,98319.19
2023-06-04T05:39:20.000Z,98315.97
2023-06-04T05:41:49.446Z,98319.84
2023-06-04T05:44:18.232Z,98328.94
2023-06-04T05:46:55.482Z,98317.06
2023-06-04T05:49:26.332Z,98321.53
2023-06-04T05:51:56.401Z,98323.78
2023-06-04T05:54:27.024Z,98321.34
2023-06-04T05:56:57.116Z,98321.59
2023-06-04T05:59:26.209Z,98323.41
2023-06-04T06:01:57.112Z,98316.75
2023-06-04T06:04:26.448Z,98320.81
2023-06-04T06:06:54.965Z,98329.50
2023-06-04T06:09:23.914Z,98331.56
2023-06-04T06:11:54.392Z,98325.50
2023-06-04T06:14:24.537Z,98323.09
2023-06-04T06:16:54.175Z,98330.34
2023-06-04T06:19:22.751Z,98326.31
2023-06-04T06:21:51.937Z,98337.88
2023-06-04T06:24:20.557Z,98331.81
2023-06-04T06:26:49.614Z,98333.03
2023-06-04T06:29:22.037Z,98334.84
2023-06-04T06:31:51.285Z,98340.13
2023-06-04T06:34:21.191Z,98336.88
2023-06-04T06:36:50.982Z,98341.34
2023-06-04T06:39:21.619Z,98346.00
2023-06-04T06:41:57.491Z,98346.19
2023-06-04T06:44:29.896Z,98351.44
2023-06-04T06:46:58.536Z,98355.28
2023-06-04T06:49:27.082Z,98357.13
2023-06-04T06:51:56.227Z,98356.34
2023-06-04T06:54:24.729Z,98355.53
2023-06-04T06:56:55.275Z,98359.97
2023-06-04T06:59:23.730Z,98354.91
2023-06-04T07:01:54.521Z,98351.44
2023-06-04T07:04:23.412Z,98354.47
2023-06-04T07:06:53.022Z,98358.72
2023-06-04T07:09:21.458Z,98358.31
2023-06-04T07:11:50.254Z,98357.47
2023-06-04T07:14:19.292Z,98348.75
2023-06-04T07:16:49.074Z,98343.25
2023-06-04T07:19:19.047Z,98346.09
2023-06-04T07:21:48.049Z,98352.75
2023-06-04T07:24:17.023Z,98346.03
2023-06-04T07:26:46.436Z,98354.50
2023-06-04T07:29:15.037Z,98350.25
2023-06-04T07:31:43.956Z,98349.97
2023-06-04T07:34:12.981Z,98345.31
2023-06-04T07:36:42.964Z,98344.25
2023-06-04T07:39:11.773Z,98345.47
2023-06-04T07:41:40.237Z,98346.63
2023-06-04T07:44:08.716Z,98357.16
2023-06-04T07:46:37.813Z,98344.53
2023-06-04T07:49:06.363Z,98340.59
2023-06-04T07:51:35.969Z,98345.63
2023-06-04T07:54:05.937Z,98348.81
2023-06-04T07:56:34.367Z,98345.53
2023-06-04T07:59:03.104Z,98348.47
2023-06-04T08:01:31.794Z,98345.16
2023-06-04T08:04:01.401Z,98343.88
2023-06-04T08:06:30.171Z,98347.25
2023-06-04T08:08:58.699Z,98345.56
2023-06-04T08:11:28.683Z,98338.19
2023-06-04T08:13:57.792Z,98341.81
2023-06-04T08:16:26.327Z,98337.28
2023-06-04T08:18:54.917Z,98340.41
2023-06-04T08:21:29.151Z,98338.88
2023-06-04T08:23:58.407Z,98339.50
2023-06-04T08:26:29.089Z,98336.75
2023-06-04T08:28:58.793Z,98327.94
2023-06-04T08:31:27.674Z,98329.56
2023-06-04T08:33:56.587Z,98333.16
2023-06-04T08:36:25.772Z,98335.25
2023-06-04T08:38:57.250Z,98341.06
2023-06-04T08:41:32.240Z,98341.44
2023-06-04T08:44:03.837Z,98338.91
2023-06-04T08:46:40.563Z,98340.59
2023-06-04T08:49:10.492Z,98342.88
2023-06-04T08:51:40.110Z,98345.41
2023-06-04T08:54:10.820Z,98337.94
2023-06-04T08:56:40.673Z,98353.31
2023-06-04T08:59:12.321Z,98351.94
2023-06-04T09:01:42.875Z,98353.44
2023-06-04T09:04:13.273Z,98351.97
2023-06-04T09:06:45.024Z,98355.19
2023-06-04T09:09:18.613Z,98349.41
2023-06-04T09:11:54.425Z,98351.16
2023-06-04T09:14:23.598Z,98342.88
2023-06-04T09:16:56.165Z,98348.53
2023-06-04T09:19:25.051Z,98346.00
2023-06-04T09:21:59.756Z,98347.50
2023-06-04T09:24:42.322Z,98342.56
2023-06-04T09:27:17.293Z,98349.97
2023-06-04T09:29:53.314Z,98352.25
2023-06-04T09:32:25.250Z,98347.53
2023-06-04T09:34:54.138Z,98346.81
2023-06-04T09:37:24.192Z,98343.25
2023-06-04T09:39:56.472Z,98344.28
2023-06-04T09:42:26.962Z,98337.38
2023-06-04T09:44:55.553Z,98338.72
2023-06-04T09:47:24.606Z,98339.19
2023-06-04T09:49:53.628Z,98344.91
2023-06-04T09:52:23.266Z,98342.13
2023-06-04T09:54:51.668Z,98335.25
2023-06-04T09:57:22.241Z,98342.94
2023-06-04T09:59:52.940Z,98346.53
2023-06-04T10:02:24.123Z,98336.56
2023-06-04T10:04:57.718Z,98335.28
2023-06-04T10:07:27.913Z,98335.94
2023-06-04T10:09:58.121Z,98340.72
2023-06-04T10:12:33.322Z,98334.47
2023-06-04T10:15:10.925Z,98337.91
2023-06-04T10:17:40.568Z,98339.50
2023-06-04T10:20:12.337Z,98344.66
2023-06-04T10:22:41.836Z,98335.06
2023-06-04T10:25:12.198Z,98341.66
2023-06-04T10:27:41.944Z,98336.75
2023-06-04T10:30:13.374Z,98339.38
2023-06-04T10:32:43.108Z,98338.41
2023-06-04T10:35:12.713Z,98327.13
2023-06-04T10:37:41.674Z,98329.56
2023-06-04T10:40:12.503Z,98352.09
2023-06-04T10:42:43.901Z,98341.06
2023-06-04T10:45:14.463Z,98333.41
2023-06-04T10:47:44.963Z,98335.63
2023-06-04T10:50:16.814Z,98337.88
2023-06-04T10:52:54.943Z,98350.44
2023-06-04T10:55:23.837Z,98340.13
2023-06-04T10:57:57.150Z,98334.31
2023-06-04T11:00:37.956Z,98340.75
2023-06-04T11:03:10.007Z,98349.09
2023-06-04T11:05:40.522Z,98347.31
2023-06-04T11:08:10.899Z,98339.59
2023-06-04T11:10:43.270Z,98337.25
2023-06-04T11:13:12.209Z,98360.19
2023-06-04T11:15:43.662Z,98347.53
2023-06-04T11:18:17.678Z,98360.16
2023-06-04T11:20:48.994Z,98342.91
2023-06-04T11:23:19.030Z,98346.44
2023-06-04T11:25:47.918Z,98352.78
2023-06-04T11:28:20.004Z,98334.25
2023-06-04T11:31:00.468Z,98339.56
2023-06-04T11:33:29.838Z,98334.28
2023-06-04T11:35:58.826Z,98335.09
2023-06-04T11:38:27.360Z,98338.63
2023-06-04T11:41:02.153Z,98333.31
2023-06-04T11:43:31.362Z,98342.13
2023-06-04T11:46:01.767Z,98329.94
2023-06-04T11:48:33.155Z,98337.19
2023-06-04T11:51:09.585Z,98323.69
2023-06-04T11:53:39.697Z,98321.03
2023-06-04T11:56:08.716Z,98320.00
2023-06-04T11:58:38.494Z,98331.25
2023-06-04T12:01:09.261Z,98324.38
2023-06-04T12:03:39.788Z,98316.13
2023-06-04T12:06:17.628Z,98310.31
2023-06-04T12:08:51.727Z,98315.44
2023-06-04T12:11:33.390Z,98315.53
2023-06-04T12:14:06.820Z,98316.91
2023-06-04T12:16:37.370Z,98312.97
2023-06-04T12:19:11.609Z,98326.88
2023-06-04T12:21:43.514Z,98317.25
2023-06-04T12:24:14.161Z,98313.78
2023-06-04T12:26:47.374Z,98319.66
2023-06-04T12:29:21.181Z,98319.41
2023-06-04T12:31:51.476Z,98306.13
2023-06-04T12:34:19.989Z,98313.63
2023-06-04T12:36:48.978Z,98311.25
2023-06-04T12:39:18.066Z,98314.47
2023-06-04T12:41:49.409Z,98310.50
2023-06-04T12:44:22.022Z,98305.16
2023-06-04T12:46:52.523Z,98319.03
2023-06-04T12:49:22.632Z,98319.06
2023-06-04T12:51:52.621Z,98308.94
2023-06-04T12:54:24.280Z,98304.13
2023-06-04T12:56:53.000Z,98306.28
2023-06-04T12:59:21.472Z,98305.75
2023-06-04T13:01:52.012Z,98301.50
2023-06-04T13:04:20.662Z,98301.78
2023-06-04T13:06:49.267Z,98301.88
2023-06-04T13:09:19.729Z,98296.28
2023-06-04T13:11:48.904Z,98296.59
2023-06-04T13:14:18.145Z,98300.06
2023-06-04T13:16:47.263Z,98301.44
2023-06-04T13:19:17.972Z,98300.13
2023-06-04T13:21:46.363Z,98307.63
2023-06-04T13:24:15.617Z,98298.81
2023-06-04T13:26:44.271Z,98292.19
2023-06-04T13:29:13.388Z,98287.13
2023-06-04T13:31:42.535Z,98289.56
2023-06-04T13:34:26.508Z,98300.50
2023-06-04T13:36:57.371Z,98293.81
2023-06-04T13:39:25.948Z,98281.84
2023-06-04T13:41:54.771Z,98285.94
2023-06-04T13:44:27.448Z,98288.88
2023-06-04T13:46:56.552Z,98288.34
2023-06-04T13:49:25.003Z,98285.41
2023-06-04T13:51:53.498Z,98290.75
2023-06-04T13:54:23.962Z,98279.28
2023-06-04T13:56:52.946Z,98284.06
2023-06-04T13:59:21.598Z,98286.50
2023-06-04T14:01:50.156Z,98263.53
2023-06-04T14:04:19.362Z,98264.31
2023-06-04T14:06:48.335Z,98261.13
2023-06-04T14:09:17.168Z,98266.19
2023-06-04T14:11:50.742Z,98262.97
2023-06-04T14:14:20.285Z,98259.53
2023-06-04T14:16:49.333Z,98252.31
2023-06-04T14:19:18.384Z,98254.72
2023-06-04T14:21:47.052Z,98258.19
2023-06-04T14:24:15.625Z,98249.59
2023-06-04T14:26:44.119Z,98242.38
2023-06-04T14:29:14.199Z,98243.13
2023-06-04T14:31:42.930Z,98240.47
2023-06-04T14:34:12.088Z,98246.03
2023-06-04T14:36:40.666Z,98253.22
2023-06-04T14:39:09.346Z,98248.94
2023-06-04T14:41:37.829Z,98240.91
2023-06-04T14:44:06.343Z,98240.88
2023-06-04T14:46:36.182Z,98244.00
2023-06-04T14:49:05.230Z,98234.84
2023-06-04T14:51:33.669Z,98238.50
2023-06-04T14:54:02.199Z,98233.41
2023-06-04T14:56:31.597Z,98226.69
2023-06-04T14:59:01.864Z,98221.31
2023-06-04T15:01:30.433Z,98222.88
2023-06-04T15:04:00.326Z,98217.19
2023-06-04T15:06:29.282Z,98215.00
2023-06-04T15:08:58.180Z,98209.31
2023-06-04T15:11:26.717Z,98221.56
2023-06-04T15:13:56.141Z,98204.09
2023-06-04T15:16:26.394Z,98202.16
2023-06-04T15:18:56.743Z,98210.16
2023-06-04T15:21:26.624Z,98201.31
2023-06-04T15:23:55.902Z,98202.38
2023-06-04T15:26:26.517Z,98201.34
2023-06-04T15:28:55.501Z,98209.59
2023-06-04T15:31:24.068Z,98208.22
2023-06-04T15:33:52.529Z,98201.03
2023-06-04T15:36:20.991Z,98208.44
2023-06-04T15:38:52.433Z,98221.03
2023-06-04T15:41:22.446Z,98206.53
2023-06-04T15:43:54.178Z,98213.75
2023-06-04T15:46:26.423Z,98203.56
2023-06-04T15:48:55.133Z,98207.31
2023-06-04T15:51:23.578Z,98199.53
2023-06-04T15:53:54.027Z,98202.44
2023-06-04T15:56:23.196Z,98211.28
2023-06-04T15:58:51.683Z,98198.22
2023-06-04T16:01:20.142Z,98199.34
2023-06-04T16:03:49.862Z,98204.00
2023-06-04T16:06:19.228Z,98196.78
2023-06-04T16:08:47.653Z,98196.31
2023-06-04T16:11:18.170Z,98190.25
2023-06-04T16:13:47.028Z,98195.34
2023-06-04T16:16:15.555Z,98192.09
2023-06-04T16:18:44.021Z,98193.13
2023-06-04T16:21:12.516Z,98194.75
2023-06-04T16:23:41.209Z,98189.38
2023-06-04T16:26:10.393Z,98189.38
2023-06-04T16:28:40.917Z,98180.72
2023-06-04T16:31:09.755Z,98187.63
2023-06-04T16:33:38.645Z,98178.69
2023-06-04T16:36:08.162Z,98189.84
2023-06-04T16:38:37.656Z,98184.09
2023-06-04T16:41:06.108Z,98192.53
2023-06-04T16:43:34.651Z,98180.91
2023-06-04T16:46:04.508Z,98200.63
2023-06-04T16:48:33.098Z,98190.63
2023-06-04T16:51:01.580Z,98189.97
2023-06-04T16:53:31.122Z,98189.88
2023-06-04T16:55:59.582Z,98193.53
2023-06-04T16:58:28.112Z,98183.66
2023-06-04T17:00:57.186Z,98185.09
2023-06-04T17:03:27.796Z,98191.69
2023-06-04T17:05:56.383Z,98187.06
2023-06-04T17:08:25.379Z,98194.53
2023-06-04T17:10:54.627Z,98184.59
2023-06-04T17:13:23.070Z,98189.31
2023-06-04T17:15:53.058Z,98182.19
2023-06-04T17:18:21.728Z,98188.56
2023-06-04T17:20:52.243Z,98185.09
2023-06-04T17:23:25.688Z,98191.03
2023-06-04T17:25:55.143Z,98193.28
2023-06-04T17:28:24.070Z,98193.53
2023-06-04T17:30:52.969Z,98192.88
2023-06-04T17:33:21.502Z,98198.19
2023-06-04T17:35:51.937Z,98199.25
2023-06-04T17:38:20.374Z,98197.78
2023-06-04T17:40:48.852Z,98193.88
2023-06-04T17:43:18.084Z,98200.03
2023-06-04T17:45:46.557Z,98199.16
2023-06-04T17:48:15.135Z,98191.72
2023-06-04T17:50:44.408Z,98202.03
2023-06-04T17:53:14.324Z,98201.88
2023-06-04T17:55:45.736Z,98206.56
2023-06-04T17:58:14.431Z,98200.78
2023-06-04T18:00:43.217Z,98203.03
2023-06-04T18:03:13.476Z,98207.91
2023-06-04T18:05:43.267Z,98201.00
2023-06-04T18:08:13.943Z,98207.50
2023-06-04T18:10:43.370Z,98218.78
2023-06-04T18:13:14.724Z,98217.28
2023-06-04T18:15:44.187Z,98220.53
2023-06-04T18:18:12.625Z,98223.53
2023-06-04T18:20:42.029Z,98226.75
2023-06-04T18:23:13.318Z,98225.47
2023-06-04T18:25:43.357Z,98228.69
2023-06-04T18:28:11.908Z,98230.31
2023-06-04T18:30:41.271Z,98228.44
2023-06-04T18:33:10.018Z,98235.69
2023-06-04T18:35:38.547Z,98233.59
2023-06-04T18:38:07.853Z,98241.09
2023-06-04T18:40:37.374Z,98238.41
2023-06-04T18:43:07.269Z,98233.59
2023-06-04T18:45:36.104Z,98231.72
2023-06-04T18:48:04.865Z,98239.19
2023-06-04T18:50:34.006Z,98242.16
2023-06-04T18:53:02.853Z,98232.81
2023-06-04T18:55:31.417Z,98244.78
2023-06-04T18:57:59.939Z,98246.66
2023-06-04T19:00:29.879Z,98240.75
2023-06-04T19:02:58.475Z,98245.81
2023-06-04T19:05:28.793Z,98245.78
2023-06-04T19:07:57.337Z,98246.31
2023-06-04T19:10:26.359Z,98249.22
2023-06-04T19:12:57.641Z,98251.88
2023-06-04T19:15:27.652Z,98250.50
2023-06-04T19:18:02.916Z,98251.22
2023-06-04T19:20:31.458Z,98254.13
2023-06-04T19:23:00.054Z,98262.66
2023-06-04T19:25:28.648Z,98257.22
2023-06-04T19:27:57.093Z,98264.94
2023-06-04T19:30:25.584Z,98263.78
2023-06-04T19:32:54.400Z,98271.22
2023-06-04T19:35:24.502Z,98265.81
2023-06-04T19:37:52.968Z,98268.94
2023-06-04T19:40:21.598Z,98269.69
2023-06-04T19:42:50.080Z,98280.03
2023-06-04T19:45:19.822Z,98273.50
2023-06-04T19:47:48.523Z,98278.53
2023-06-04T19:50:17.045Z,98293.88
2023-06-04T19:52:47.224Z,98291.72
2023-06-04T19:55:16.217Z,98298.31
2023-06-04T19:57:45.525Z,98295.84
2023-06-04T20:00:14.756Z,98297.34
2023-06-04T20:02:43.398Z,98309.25
2023-06-04T20:05:12.882Z,98307.25
2023-06-04T20:07:42.048Z,98305.88
2023-06-04T20:10:12.578Z,98307.59
2023-06-04T20:12:41.136Z,98312.75
2023-06-04T20:15:12.313Z,98321.97
2023-06-04T20:17:40.907Z,98324.81
2023-06-04T20:20:10.732Z,98323.38
2023-06-04T20:22:40.345Z,98325.31
2023-06-04T20:25:09.583Z,98330.31
2023-06-04T20:27:39.379Z,98331.22
2023-06-04T20:30:09.704Z,98334.03
2023-06-04T20:32:38.343Z,98339.78
2023-06-04T20:35:10.267Z,98342.03
2023-06-04T20:37:40.373Z,98333.38
2023-06-04T20:40:10.028Z,98334.03
2023-06-04T20:42:53.171Z,98329.91
2023-06-04T20:45:21.762Z,98334.84
2023-06-04T20:47:50.434Z,98330.13
2023-06-04T20:50:18.954Z,98334.00
2023-06-04T20:52:47.420Z,98339.50
2023-06-04T20:55:17.793Z,98340.22
2023-06-04T20:57:47.632Z,98337.56
2023-06-04T21:00:17.732Z,98344.63
2023-06-04T21:02:46.503Z,98344.19
2023-06-04T21:05:15.084Z,98347.63
2023-06-04T21:07:44.191Z,98360.69
2023-06-04T21:10:13.401Z,98353.69
2023-06-04T21:12:41.872Z,98353.47
2023-06-04T21:15:12.651Z,98361.22
2023-06-04T21:17:41.169Z,98357.06
2023-06-04T21:20:11.700Z,98357.19
2023-06-04T21:22:40.184Z,98358.13
2023-06-04T21:25:09.814Z,98359.50
2023-06-04T21:27:38.512Z,98354.78
2023-06-04T21:30:08.708Z,98363.84
2023-06-04T21:32:39.017Z,98364.31
2023-06-04T21:35:08.852Z,98368.22
2023-06-04T21:37:38.025Z,98367.75
2023-06-04T21:40:08.324Z,98365.44
2023-06-04T21:42:37.293Z,98360.47
2023-06-04T21:45:08.330Z,98363.56
2023-06-04T21:47:38.731Z,98372.44
2023-06-04T21:50:08.384Z,98371.28
2023-06-04T21:52:37.013Z,98368.25
2023-06-04T21:55:06.605Z,98369.59
2023-06-04T21:57:36.258Z,98370.16
2023-06-04T22:00:07.008Z,98369.44
2023-06-04T22:02:36.340Z,98374.81
2023-06-04T22:05:07.692Z,98380.00
2023-06-04T22:07:36.607Z,98375.38
2023-06-04T22:10:07.060Z,98383.94
2023-06-04T22:12:36.024Z,98384.81
2023-06-04T22:15:05.994Z,98382.84
2023-06-04T22:17:34.539Z,98382.91
2023-06-04T22:20:03.146Z,98378.53
2023-06-04T22:22:33.629Z,98379.41
2023-06-04T22:25:02.123Z,98385.56
2023-06-04T22:27:31.034Z,98384.19
2023-06-04T22:29:59.458Z,98375.06
2023-06-04T22:32:27.975Z,98377.34
2023-06-04T22:34:56.430Z,98384.78
2023-06-04T22:37:24.893Z,98382.97
2023-06-04T22:39:55.137Z,98385.13
2023-06-04T22:42:24.113Z,98389.47
2023-06-04T22:44:54.603Z,98382.63
2023-06-04T22:47:23.111Z,98384.88
2023-06-04T22:49:51.643Z,98379.66
2023-06-04T22:52:21.104Z,98381.72
2023-06-04T22:54:49.680Z,98382.59
2023-06-04T22:57:20.522Z,98379.78
2023-06-04T22:59:49.524Z,98378.41
2023-06-04T23:02:18.594Z,98382.28
2023-06-04T23:04:47.668Z,98380.50
2023-06-04T23:07:16.293Z,98382.97
2023-06-04T23:09:44.830Z,98380.16
2023-06-04T23:12:13.396Z,98383.22
2023-06-04T23:14:43.851Z,98376.75
2023-06-04T23:17:12.335Z,98380.88
2023-06-04T23:19:41.373Z,98374.16
2023-06-04T23:22:09.869Z,98375.63
2023-06-04T23:24:38.470Z,98369.22
2023-06-04T23:27:07.512Z,98379.16
2023-06-04T23:29:36.628Z,98378.56
2023-06-04T23:32:07.494Z,98371.09
2023-06-04T23:34:36.572Z,98374.13
2023-06-04T23:37:05.141Z,98376.59
2023-06-04T23:39:33.609Z,98375.44
2023-06-04T23:42:02.223Z,98373.03
2023-06-04T23:44:30.688Z,98378.34
2023-06-04T23:46:59.210Z,98370.03
2023-06-04T23:49:30.125Z,98373.88
2023-06-04T23:51:58.576Z,98375.31
2023-06-04T23:54:27.149Z,98376.56
2023-06-04T23:56:56.285Z,98378.81
2023-06-04T23:59:24.824Z,98373.94
